POGODA: Poland

Lotnisko: Katowice

METAR KOD: EPKT


METAR: EPKT 312000Z 07003KT 3500 BR NSC 01/00 Q1026


BLOK
Pogoda METAR
312000Z
Dzien: 31, Godzina: 20:00 UTC.
07003KT
Wiatr z kierunku 070, o predkosci 6 km/h
3500
Widzialnosc pozioma 3500 m.
BR
zamglenia
NSC
brak istotnych chmur
01/00
Temperatura: powietrze 1°C, punkt rosy 0°C
Q1026
Cisnienie: 1026 hPa

Pogoda na innym lotnisku

Pogoda Gdansk-Rebiechowo WEATHER Poland  
Pogoda Katowice WEATHER Poland  
Pogoda Krakow WEATHER Poland  
Pogoda Poznan WEATHER Poland  
Pogoda Rzeszow-Jasionka WEATHER Poland  
Pogoda Szczecin WEATHER Poland  
Pogoda Warszawa-Okecie WEATHER Poland  
Pogoda Wroclaw Ii WEATHER Poland  

Pogoda w inny kraju

Strona startowa

(C) by GREGOR 2007
Ogłoszenia Towarzyskie